Time;durP1;ratioP1;P1;durP2;ratioP2;P2;SDS_P1;SDS_P2;PMS_P1;PMS_P2;Temp;Humidity;BMP_temperature;BMP_pressure;BME280_temperature;BME280_humidity;BME280_pressure;Samples;Min_cycle;Max_cycle;Signal;HPM_P1;HPM_P2
2022/05/29 00:01:13;;;;;;;3.37;2.85;;;;;;;12.36;70.06;99411.44;1658879;86;21148;-76
2022/05/29 11:31:28;;;;;;;1.30;1.00;;;;;;;19.99;33.75;99627.78;1798172;78;23400;-71
2022/05/29 11:34:12;;;;;;;1.40;1.30;;;;;;;19.97;33.55;99608.17;1760172;80;20956;-82
2022/05/29 11:37:00;;;;;;;5.15;1.40;;;;;;;19.99;33.92;99610.59;1749688;80;21253;-77
2022/05/29 11:39:40;;;;;;;3.33;1.37;;;;;;;20.05;33.42;99610.69;1723943;83;21255;-75
2022/05/29 11:42:23;;;;;;;2.80;1.20;;;;;;;20.16;33.02;99598.93;1747874;81;20975;-77
2022/05/29 11:45:04;;;;;;;1.40;1.30;;;;;;;20.28;33.16;99607.34;1724874;81;21520;-80
2022/05/29 11:53:56;;;;;;;1.60;1.10;;;;;;;20.50;31.53;99603.73;1716062;83;20947;-79
2022/05/29 11:56:35;;;;;;;;;;;;;;;20.60;31.39;99609.72;1731627;82;21536;-84
2022/05/29 11:59:28;;;;;;;0.90;0.90;;;;;;;20.67;30.90;99620.20;1696106;83;20472;-84
2022/05/29 12:02:33;;;;;;;;;;;;;;;20.70;31.04;99608.06;1647531;87;21120;-85
2022/05/29 12:05:13;;;;;;;;;;;;;;;20.78;31.00;99599.06;1674746;84;21995;-87
2022/05/29 12:08:08;;;;;;;1.05;0.95;;;;;;;20.76;31.30;99593.69;1649348;85;20195;-81
2022/05/29 12:12:43;;;;;;;1.22;0.80;;;;;;;21.08;30.52;99595.14;1815251;79;22679;-82
2022/05/29 12:15:15;;;;;;;2.87;1.00;;;;;;;21.16;29.92;99603.38;1788024;80;20940;-80
2022/05/29 12:17:50;;;;;;;1.07;0.98;;;;;;;21.29;29.84;99597.52;1782426;80;21818;-78
2022/05/29 12:20:36;;;;;;;3.37;1.20;;;;;;;21.34;29.67;99596.55;1765984;80;20984;-78
2022/05/29 12:23:07;;;;;;;1.70;0.90;;;;;;;21.43;29.68;99599.52;1755373;81;20959;-79
2022/05/29 12:26:03;;;;;;;2.90;1.42;;;;;;;21.59;29.86;99592.95;1746724;82;20897;-78
2022/05/29 12:28:56;;;;;;;3.65;1.40;;;;;;;21.79;29.34;99598.31;1740345;81;21038;-78
2022/05/29 12:31:45;;;;;;;3.55;1.05;;;;;;;22.02;28.23;99600.52;1683483;84;21166;-81
2022/05/29 12:34:29;;;;;;;1.22;1.02;;;;;;;22.21;26.86;99600.13;1705721;83;20901;-82
2022/05/29 12:37:05;;;;;;;;;;;;;;;22.40;26.47;99590.11;1686454;82;21525;-75
2022/05/29 12:39:46;;;;;;;4.92;1.55;;;;;;;22.44;26.58;99594.64;1701949;84;20191;-76
2022/05/29 12:42:36;;;;;;;2.58;0.90;;;;;;;22.44;25.86;99593.83;1695469;82;21012;-76
2022/05/29 12:45:40;;;;;;;1.05;0.90;;;;;;;22.51;26.54;99594.91;1689025;82;21528;-76
2022/05/29 12:49:01;;;;;;;2.85;2.45;;;;;;;22.77;26.71;99607.69;1704199;82;21043;-75
2022/05/29 12:51:56;;;;;;;2.83;1.02;;;;;;;22.70;27.31;99590.92;1698575;83;21062;-74
2022/05/29 12:54:38;;;;;;;1.42;1.00;;;;;;;22.58;28.34;99597.94;1694042;83;21078;-79
2022/05/29 12:57:53;;;;;;;1.02;1.00;;;;;;;22.74;27.46;99601.48;1673498;83;21496;-77
2022/05/29 13:00:35;;;;;;;2.45;1.57;;;;;;;22.77;27.57;99589.87;1702409;83;21437;-78
2022/05/29 13:03:24;;;;;;;1.02;0.95;;;;;;;22.55;28.14;99604.06;1702059;83;21042;-79
2022/05/29 13:06:42;;;;;;;3.08;1.05;;;;;;;22.47;28.76;99605.49;1700761;84;21088;-77
2022/05/29 13:09:42;;;;;;;2.67;1.87;;;;;;;22.41;28.86;99595.84;1704898;83;20964;-81
2022/05/29 13:12:19;;;;;;;3.60;1.15;;;;;;;22.47;29.11;99604.92;1690391;83;21092;-80
2022/05/29 13:14:52;;;;;;;1.85;1.30;;;;;;;22.53;28.67;99599.50;1728921;82;21141;-75
2022/05/29 13:17:25;;;;;;;1.30;0.93;;;;;;;22.32;27.92;99600.56;1732049;82;20967;-76
2022/05/29 13:20:02;;;;;;;1.32;1.22;;;;;;;22.03;28.53;99601.33;1745708;81;20957;-83
2022/05/29 13:23:04;;;;;;;1.98;1.30;;;;;;;21.73;28.92;99598.48;1736894;81;21040;-88
2022/05/29 13:25:42;;;;;;;4.33;1.82;;;;;;;21.65;29.07;99599.88;1736915;82;21516;-86
2022/05/29 13:28:43;;;;;;;2.45;0.95;;;;;;;21.64;29.41;99607.84;1741462;82;21080;-87
2022/05/29 13:31:14;;;;;;;1.20;1.10;;;;;;;21.51;29.34;99615.12;1743395;81;21599;-89
2022/05/29 13:33:58;;;;;;;4.12;0.93;;;;;;;21.43;29.71;99619.23;1743189;82;21028;-86
2022/05/29 13:36:53;;;;;;;0.98;0.82;;;;;;;21.44;29.80;99621.63;1733737;82;21004;-84
2022/05/29 13:39:35;;;;;;;0.88;0.72;;;;;;;21.47;29.71;99616.89;1743617;82;21099;-78
2022/05/29 13:42:34;;;;;;;0.90;0.90;;;;;;;21.46;29.76;99619.39;1738878;81;21106;-83
2022/05/29 13:45:14;;;;;;;1.75;1.62;;;;;;;21.50;29.86;99614.87;1713635;83;21031;-81
2022/05/29 13:47:46;;;;;;;2.30;1.40;;;;;;;21.77;29.81;99610.17;1655944;82;20960;-78
2022/05/29 13:50:24;;;;;;;4.10;2.30;;;;;;;22.10;29.55;99609.86;1724879;82;21033;-75
2022/05/29 13:53:03;;;;;;;3.87;1.57;;;;;;;22.50;29.22;99613.05;1743275;82;21038;-76
2022/05/29 13:55:38;;;;;;;5.65;1.05;;;;;;;22.88;27.33;99611.06;1743379;82;21550;-76
2022/05/29 14:04:06;;;;;;;1.67;0.85;;;;;;;24.04;24.87;99615.69;1743323;82;20948;-76
2022/05/29 14:06:41;;;;;;;1.70;1.60;;;;;;;23.93;25.32;99629.08;1741792;82;21177;-79
2022/05/29 14:09:23;;;;;;;1.20;0.98;;;;;;;24.09;24.99;99616.84;1743357;81;22620;-79
2022/05/29 14:11:56;;;;;;;0.80;0.80;;;;;;;24.05;25.25;99616.73;1740050;82;21105;-88
2022/05/29 14:14:37;;;;;;;3.55;1.05;;;;;;;24.12;25.11;99624.42;1756723;81;20968;-82
2022/05/29 14:17:29;;;;;;;1.45;1.00;;;;;;;24.28;24.98;99628.92;1733362;82;21507;-74
2022/05/29 14:20:36;;;;;;;1.50;1.30;;;;;;;24.54;24.66;99621.73;1735064;82;21569;-77
2022/05/29 14:23:43;;;;;;;2.42;1.67;;;;;;;24.77;24.52;99612.42;1735071;82;21507;-78
2022/05/29 14:26:56;;;;;;;1.80;1.57;;;;;;;24.85;24.76;99606.55;1735020;82;22179;-79
2022/05/29 14:29:57;;;;;;;1.10;1.00;;;;;;;24.97;24.66;99605.19;1755398;81;20995;-83
2022/05/29 14:33:06;;;;;;;2.05;1.05;;;;;;;24.91;24.42;99609.33;1740049;81;21502;-82
2022/05/29 14:35:45;;;;;;;0.60;0.60;;;;;;;24.95;24.96;99621.23;1711837;83;20984;-77
2022/05/29 14:38:42;;;;;;;0.85;0.80;;;;;;;25.18;24.81;99625.08;1718355;83;21803;-85
2022/05/29 14:41:31;;;;;;;1.50;0.88;;;;;;;25.01;24.12;99625.36;1728136;81;21542;-83
2022/05/29 14:44:11;;;;;;;0.90;0.80;;;;;;;24.81;24.62;99620.20;1730782;81;21526;-83
2022/05/29 14:47:17;;;;;;;0.70;0.70;;;;;;;24.91;24.69;99624.45;1716292;82;20905;-82
2022/05/29 14:49:26;;;;;;;1.45;1.17;;;;;;;25.27;24.31;99621.64;1723619;82;21599;-79
2022/05/29 14:52:25;;;;;;;1.07;0.98;;;;;;;25.37;24.01;99628.60;1736568;82;20937;-83
2022/05/29 14:54:56;;;;;;;1.37;1.00;;;;;;;25.49;23.82;99624.41;1736283;82;20988;-82
2022/05/29 14:57:29;;;;;;;4.70;1.10;;;;;;;25.41;23.79;99621.23;1736311;82;20977;-84
2022/05/29 15:00:01;;;;;;;1.07;0.90;;;;;;;25.39;24.22;99622.15;1734006;81;21904;-79
2022/05/29 15:02:34;;;;;;;1.17;1.00;;;;;;;25.35;24.33;99622.05;1736673;81;21098;-80
2022/05/29 15:05:17;;;;;;;1.47;0.90;;;;;;;25.17;24.30;99626.25;1735848;81;21012;-83
2022/05/29 15:10:41;;;;;;;1.17;1.07;;;;;;;25.24;24.44;99628.39;1736271;82;21498;-79
2022/05/29 15:13:15;;;;;;;2.05;0.78;;;;;;;25.27;24.70;99623.59;1739646;82;21596;-86
2022/05/29 15:15:57;;;;;;;1.20;1.10;;;;;;;25.54;24.08;99640.14;1742599;82;20993;-76
2022/05/29 15:18:30;;;;;;;1.05;0.85;;;;;;;25.84;24.01;99631.52;1743051;81;21762;-91
2022/05/29 15:24:12;;;;;;;0.65;0.65;;;;;;;26.31;23.39;99637.90;1741868;81;20968;-89
2022/05/29 15:26:46;;;;;;;0.82;0.82;;;;;;;26.25;23.17;99631.05;1743379;81;21038;-87
2022/05/29 15:29:23;;;;;;;3.50;1.10;;;;;;;25.97;23.27;99632.47;1742413;81;21019;-84
2022/05/29 15:31:55;;;;;;;3.67;0.93;;;;;;;25.80;23.62;99635.56;1740265;81;22224;-86
2022/05/29 15:34:45;;;;;;;1.45;0.80;;;;;;;25.75;23.65;99634.44;1741473;81;21593;-87
2022/05/29 15:37:45;;;;;;;1.10;0.62;;;;;;;25.79;23.41;99636.70;1743354;82;28281;-87
2022/05/29 15:40:43;;;;;;;6.25;1.15;;;;;;;25.68;23.34;99634.23;1743263;81;21494;-83
2022/05/29 15:43:15;;;;;;;0.82;0.80;;;;;;;25.57;23.88;99637.25;1743907;81;21020;-84
2022/05/29 15:46:28;;;;;;;1.52;1.12;;;;;;;25.53;23.73;99633.00;1707851;84;20958;-89
2022/05/29 15:49:17;;;;;;;1.95;1.52;;;;;;;25.49;23.93;99640.36;1687969;83;21474;-86
2022/05/29 15:52:32;;;;;;;1.40;1.30;;;;;;;25.34;24.22;99646.61;1743321;82;20933;-85
2022/05/29 15:55:21;;;;;;;1.60;1.17;;;;;;;25.44;24.22;99638.43;1743986;82;21000;-86
2022/05/29 15:57:51;;;;;;;1.75;0.95;;;;;;;25.67;24.00;99646.39;1743247;81;20960;-86
2022/05/29 16:00:25;;;;;;;1.80;0.90;;;;;;;25.59;24.15;99644.60;1743423;81;20949;-87
2022/05/29 16:02:57;;;;;;;1.95;1.35;;;;;;;25.57;23.98;99643.56;1743370;82;20964;-84
2022/05/29 16:05:38;;;;;;;1.52;1.00;;;;;;;25.53;24.15;99648.14;1741117;81;20941;-91
2022/05/29 16:08:33;;;;;;;1.10;0.93;;;;;;;25.48;24.10;99644.27;1743309;82;21591;-87
2022/05/29 16:11:01;;;;;;;1.87;1.00;;;;;;;25.18;24.36;99642.97;1743334;82;21417;-87
2022/05/29 16:13:47;;;;;;;0.85;0.85;;;;;;;25.03;24.64;99640.97;1717644;82;21249;-86
2022/05/29 16:16:22;;;;;;;2.60;1.15;;;;;;;25.00;24.87;99641.64;1714125;82;22268;-85
2022/05/29 16:19:11;;;;;;;1.95;1.10;;;;;;;24.96;25.21;99643.48;1736649;81;20979;-86
2022/05/29 16:22:08;;;;;;;1.32;0.95;;;;;;;24.99;25.38;99640.03;1736466;82;21059;-87
2022/05/29 16:24:47;;;;;;;2.22;1.12;;;;;;;25.03;25.15;99643.72;1736810;82;21016;-85
2022/05/29 16:27:31;;;;;;;0.98;0.98;;;;;;;24.95;25.20;99645.44;1736743;82;21341;-86
2022/05/29 16:30:08;;;;;;;1.90;1.27;;;;;;;24.91;25.46;99644.53;1736720;82;21055;-86
2022/05/29 16:32:51;;;;;;;1.25;1.02;;;;;;;25.11;25.36;99646.91;1737130;82;21103;-86
2022/05/29 16:36:02;;;;;;;2.25;0.98;;;;;;;25.18;25.21;99648.47;1736865;82;21532;-87
2022/05/29 16:50:40;;;;;;;0.95;0.68;;;;;;;24.01;26.36;99657.59;1743972;82;21027;-84
2022/05/29 16:53:13;;;;;;;1.17;1.07;;;;;;;23.71;26.85;99654.98;1743960;82;21580;-83
2022/05/29 16:55:46;;;;;;;1.15;1.12;;;;;;;23.34;27.33;99654.56;1744444;82;20980;-85
2022/05/29 16:58:17;;;;;;;1.80;1.35;;;;;;;23.06;27.75;99663.89;1744877;82;21047;-86
2022/05/29 17:01:02;;;;;;;1.85;1.10;;;;;;;22.99;28.13;99663.61;1743512;82;20984;-85
2022/05/29 17:03:37;;;;;;;1.75;1.20;;;;;;;22.99;28.29;99660.30;1741052;82;20988;-85
2022/05/29 17:06:08;;;;;;;1.77;1.02;;;;;;;22.97;28.27;99658.44;1741659;82;21497;-83
2022/05/29 17:09:00;;;;;;;2.12;1.10;;;;;;;22.80;28.16;99659.92;1714691;82;21253;-89
2022/05/29 17:11:27;;;;;;;1.30;1.20;;;;;;;22.54;28.54;99660.02;1741335;82;20956;-84
2022/05/29 17:13:54;;;;;;;1.42;1.10;;;;;;;22.17;29.47;99659.45;1750330;82;21012;-84
2022/05/29 17:16:21;;;;;;;3.30;0.62;;;;;;;21.94;30.09;99656.70;1750909;80;21504;-86
2022/05/29 17:18:50;;;;;;;1.45;1.30;;;;;;;21.73;31.19;99664.19;1724227;82;21031;-84
2022/05/29 17:21:24;;;;;;;1.62;0.90;;;;;;;21.51;31.19;99661.64;1749225;81;21877;-86
2022/05/29 17:24:08;;;;;;;3.62;1.57;;;;;;;21.36;31.24;99663.49;1745221;81;21024;-81
2022/05/29 17:27:07;;;;;;;1.25;0.98;;;;;;;21.22;31.63;99662.28;1751312;82;21520;-82
2022/05/29 17:29:48;;;;;;;0.90;0.90;;;;;;;20.92;31.40;99655.52;1751500;81;21011;-78
2022/05/29 17:32:28;;;;;;;3.08;1.42;;;;;;;20.76;31.83;99655.19;1751484;81;21012;-82
2022/05/29 17:35:09;;;;;;;2.80;1.12;;;;;;;20.63;32.04;99647.34;1748999;81;21493;-79
2022/05/29 17:37:58;;;;;;;4.10;3.80;;;;;;;20.52;32.18;99652.06;1750803;81;20963;-73
2022/05/29 17:40:36;;;;;;;3.75;1.55;;;;;;;20.39;32.38;99653.76;1726240;82;21047;-75
2022/05/29 17:43:03;;;;;;;2.20;1.40;;;;;;;20.30;32.68;99652.89;1751369;82;20941;-74
2022/05/29 17:45:30;;;;;;;2.35;1.25;;;;;;;20.19;33.31;99648.84;1651803;83;21060;-75
2022/05/29 17:48:25;;;;;;;1.60;1.40;;;;;;;20.12;33.86;99654.74;1688493;85;20991;-74
2022/05/29 17:51:04;;;;;;;;;;;;;;;19.98;35.05;99653.47;1720056;82;20959;-73
2022/05/29 17:53:54;;;;;;;2.30;1.60;;;;;;;19.65;35.34;99664.97;1707399;83;20128;-75
2022/05/29 17:56:22;;;;;;;1.80;1.40;;;;;;;19.44;35.75;99664.64;1665649;84;21149;-73
2022/05/29 17:58:50;;;;;;;3.60;1.67;;;;;;;19.26;35.91;99663.67;1644094;86;21004;-83
2022/05/29 18:01:17;;;;;;;2.52;1.80;;;;;;;19.22;35.87;99658.59;1673805;85;21118;-78
2022/05/29 18:03:43;;;;;;;3.47;2.60;;;;;;;19.11;36.47;99662.09;1698934;84;21032;-88
2022/05/29 18:06:10;;;;;;;12.78;3.08;;;;;;;19.01;36.55;99665.59;1715675;83;21069;-82
2022/05/29 18:08:36;;;;;;;2.05;1.50;;;;;;;18.98;36.50;99674.39;1702028;82;20940;-81
2022/05/29 18:11:08;;;;;;;1.98;1.20;;;;;;;18.92;36.64;99666.06;1702072;82;21580;-77
2022/05/29 18:13:36;;;;;;;1.98;1.50;;;;;;;18.78;36.73;99667.45;1701566;82;21150;-76
2022/05/29 18:16:04;;;;;;;3.02;2.30;;;;;;;18.65;36.96;99672.36;1707498;84;21581;-75
2022/05/29 18:18:31;;;;;;;3.30;1.85;;;;;;;18.55;37.83;99668.47;1747700;82;21028;-77
2022/05/29 18:20:58;;;;;;;2.65;1.60;;;;;;;18.49;37.78;99666.92;1734792;82;20937;-76
2022/05/29 18:23:24;;;;;;;2.83;1.50;;;;;;;18.45;37.86;99664.55;1739209;82;22193;-77
2022/05/29 18:25:54;;;;;;;3.37;1.60;;;;;;;18.35;38.46;99664.19;1707386;83;21227;-75
2022/05/29 18:28:21;;;;;;;1.70;1.60;;;;;;;18.23;38.81;99669.31;1723442;81;20980;-75
2022/05/29 18:30:47;;;;;;;2.27;1.72;;;;;;;18.13;39.08;99663.50;1740183;82;20970;-73
2022/05/29 18:33:14;;;;;;;2.15;1.60;;;;;;;18.07;39.41;99671.52;1741660;82;21119;-73
2022/05/29 18:35:40;;;;;;;3.00;1.75;;;;;;;18.00;39.38;99669.73;1739122;82;21070;-73
2022/05/29 18:38:07;;;;;;;4.25;1.82;;;;;;;17.96;39.53;99675.52;1742215;82;21257;-73
2022/05/29 18:40:34;;;;;;;3.37;1.52;;;;;;;17.93;39.60;99670.69;1743249;82;20917;-76
2022/05/29 18:43:01;;;;;;;2.67;1.77;;;;;;;17.89;39.87;99675.08;1737956;82;20905;-74
2022/05/29 18:45:29;;;;;;;3.08;2.10;;;;;;;17.82;40.12;99673.31;1741294;82;20993;-72
2022/05/29 18:47:58;;;;;;;2.05;1.80;;;;;;;17.73;40.34;99663.67;1743231;82;21033;-74
2022/05/29 18:50:26;;;;;;;2.02;1.80;;;;;;;17.66;40.29;99667.86;1741586;82;21163;-78
2022/05/29 18:52:53;;;;;;;7.50;5.78;;;;;;;17.58;40.18;99665.80;1702163;83;21574;-79
2022/05/29 18:55:20;;;;;;;4.37;2.72;;;;;;;17.52;40.29;99665.06;1671147;84;21054;-80
2022/05/29 18:57:46;;;;;;;3.12;2.30;;;;;;;17.50;40.48;99667.28;1640648;87;21056;-83
2022/05/29 19:00:15;;;;;;;3.67;2.30;;;;;;;17.49;40.77;99673.82;1653161;86;21050;-84
2022/05/29 19:02:42;;;;;;;5.10;3.70;;;;;;;17.50;40.76;99665.92;1653574;86;21141;-82
2022/05/29 19:05:13;;;;;;;8.30;4.78;;;;;;;17.50;40.93;99674.08;1655601;86;21259;-86
2022/05/29 19:07:40;;;;;;;16.15;6.00;;;;;;;17.50;41.33;99670.01;1651821;86;20983;-86
2022/05/29 19:10:08;;;;;;;10.98;7.60;;;;;;;17.46;41.50;99665.45;1644605;86;21083;-86
2022/05/29 19:12:34;;;;;;;7.87;5.97;;;;;;;17.44;41.64;99663.83;1607179;85;21036;-86
2022/05/29 19:15:01;;;;;;;8.38;5.75;;;;;;;17.43;41.74;99666.84;1658715;86;21155;-81
2022/05/29 19:20:13;;;;;;;11.68;5.90;;;;;;;17.39;42.40;99667.98;1639139;86;20987;-77
2022/05/29 19:22:40;;;;;;;8.75;5.17;;;;;;;17.31;42.37;99667.27;1675888;85;21010;-77
2022/05/29 19:25:08;;;;;;;6.08;4.28;;;;;;;17.24;42.97;99661.41;1658733;86;21006;-85
2022/05/29 19:27:35;;;;;;;10.70;4.97;;;;;;;17.13;43.20;99661.29;1667159;85;21504;-77
2022/05/29 19:30:09;;;;;;;7.75;6.37;;;;;;;17.00;43.53;99666.10;1657408;86;20990;-78
2022/05/29 19:32:36;;;;;;;8.45;5.78;;;;;;;16.92;43.36;99662.69;1637021;86;21507;-80
2022/05/29 19:35:04;;;;;;;5.70;4.42;;;;;;;16.87;43.76;99663.56;1687883;85;21006;-81
2022/05/29 19:37:36;;;;;;;6.42;4.53;;;;;;;16.84;43.45;99669.56;1674873;85;21039;-77
2022/05/29 19:40:06;;;;;;;4.85;4.35;;;;;;;16.87;43.30;99670.91;1649442;86;21908;-76
2022/05/29 19:42:36;;;;;;;6.40;4.20;;;;;;;16.87;43.32;99680.41;1652544;85;21029;-72
2022/05/29 19:45:04;;;;;;;8.40;5.47;;;;;;;16.88;43.28;99682.81;1658820;86;20971;-73
2022/05/29 19:47:31;;;;;;;12.10;6.15;;;;;;;16.86;43.60;99686.39;1658353;86;21519;-74
2022/05/29 19:49:59;;;;;;;13.40;8.10;;;;;;;16.87;43.61;99685.84;1652303;85;21115;-75
2022/05/29 19:52:26;;;;;;;10.45;6.58;;;;;;;16.87;43.85;99688.02;1658783;86;21305;-76
2022/05/29 19:54:53;;;;;;;9.65;6.00;;;;;;;16.85;44.07;99683.41;1675876;85;21022;-75
2022/05/29 19:57:20;;;;;;;6.10;5.03;;;;;;;16.83;44.15;99680.74;1658736;86;21069;-75
2022/05/29 19:59:46;;;;;;;9.13;5.50;;;;;;;16.81;44.05;99675.59;1672693;85;20959;-79
2022/05/29 20:02:13;;;;;;;9.40;4.95;;;;;;;16.79;44.37;99685.92;1630402;88;21026;-74
2022/05/29 20:04:41;;;;;;;8.85;5.30;;;;;;;16.78;44.36;99687.59;1651465;85;21362;-73
2022/05/29 20:07:09;;;;;;;9.28;5.47;;;;;;;16.76;44.78;99695.21;1633337;87;21036;-87
2022/05/29 20:09:36;;;;;;;10.35;5.25;;;;;;;16.70;44.88;99690.93;1647205;86;21094;-83
2022/05/29 20:12:06;;;;;;;8.43;6.20;;;;;;;16.65;45.33;99692.34;1682949;85;21063;-77
2022/05/29 20:14:32;;;;;;;5.70;4.85;;;;;;;16.59;45.48;99692.98;1648317;86;21043;-72
2022/05/29 20:16:59;;;;;;;6.65;5.12;;;;;;;16.55;45.66;99692.70;1680857;84;21526;-73
2022/05/29 20:19:25;;;;;;;8.05;5.75;;;;;;;16.50;45.74;99690.58;1709347;84;21023;-73
2022/05/29 20:21:52;;;;;;;8.53;4.10;;;;;;;16.45;45.95;99693.38;1709204;84;20997;-70
2022/05/29 20:24:19;;;;;;;7.20;4.35;;;;;;;16.43;45.89;99697.73;1673073;85;21489;-70
2022/05/29 20:26:47;;;;;;;6.10;4.53;;;;;;;16.38;46.00;99695.07;1671914;85;21060;-70
2022/05/29 20:29:16;;;;;;;9.18;4.55;;;;;;;16.34;46.08;99695.94;1681638;84;21234;-74
2022/05/29 20:31:43;;;;;;;14.53;8.73;;;;;;;16.33;46.31;99697.84;1689047;84;21000;-72
2022/05/29 20:34:16;;;;;;;11.25;7.45;;;;;;;16.32;46.32;99694.85;1709668;84;21016;-71
2022/05/29 20:36:43;;;;;;;7.67;3.75;;;;;;;16.33;46.36;99696.48;1673358;85;20999;-71
2022/05/29 20:39:10;;;;;;;5.42;3.67;;;;;;;16.34;46.20;99695.94;1698055;84;21114;-72
2022/05/29 20:41:42;;;;;;;3.80;2.92;;;;;;;16.36;46.31;99700.51;1704223;84;21758;-70
2022/05/29 20:44:05;;;;;;;4.70;3.15;;;;;;;16.37;46.22;99699.42;1691368;84;20976;-72
2022/05/29 20:49:17;;;;;;;2.90;2.55;;;;;;;16.38;46.08;99705.11;1670549;85;20982;-72
2022/05/29 20:51:44;;;;;;;2.58;2.37;;;;;;;16.37;46.06;99704.84;1708458;84;20980;-76
2022/05/29 20:54:17;;;;;;;2.45;2.00;;;;;;;16.36;46.08;99705.94;1709081;84;21813;-75
2022/05/29 20:56:45;;;;;;;3.85;2.67;;;;;;;16.37;46.06;99704.84;1731401;82;21501;-76
2022/05/29 20:59:12;;;;;;;3.25;2.72;;;;;;;16.37;46.09;99700.23;1671848;85;21118;-77
2022/05/29 21:01:39;;;;;;;3.67;2.35;;;;;;;16.38;46.16;99702.40;1645371;85;21508;-78
2022/05/29 21:04:06;;;;;;;3.65;2.65;;;;;;;16.36;46.16;99697.80;1709462;84;21035;-77
2022/05/29 21:06:37;;;;;;;3.15;2.37;;;;;;;16.35;46.29;99708.41;1709059;84;21191;-75
2022/05/29 21:09:05;;;;;;;3.52;2.35;;;;;;;16.34;46.41;99705.43;1708755;84;20945;-74
2022/05/29 21:11:33;;;;;;;2.27;2.05;;;;;;;16.29;46.56;99710.37;1709570;83;20913;-78
2022/05/29 21:14:11;;;;;;;5.70;2.47;;;;;;;16.25;46.71;99718.83;1706133;83;21497;-76
2022/05/29 21:16:37;;;;;;;5.45;2.75;;;;;;;16.22;46.82;99717.20;1701703;84;21071;-76
2022/05/29 21:19:13;;;;;;;3.37;2.35;;;;;;;16.19;46.97;99720.50;1693492;84;21215;-81
2022/05/29 21:21:40;;;;;;;4.00;2.20;;;;;;;16.17;47.07;99726.20;1674696;85;21568;-78
2022/05/29 21:24:09;;;;;;;3.85;1.95;;;;;;;16.14;47.24;99720.00;1674651;85;21048;-77
2022/05/29 21:26:36;;;;;;;2.90;2.40;;;;;;;16.10;47.36;99718.97;1689320;84;21491;-88
2022/05/29 21:29:03;;;;;;;6.78;2.33;;;;;;;16.10;47.38;99721.13;1702464;83;21076;-86
2022/05/29 21:31:32;;;;;;;2.70;2.35;;;;;;;16.10;47.43;99724.39;1693883;84;21061;-85
2022/05/29 21:34:04;;;;;;;3.70;2.47;;;;;;;16.11;47.46;99722.73;1627871;87;21015;-85
2022/05/29 21:36:31;;;;;;;2.67;2.10;;;;;;;16.13;47.52;99723.80;1629150;86;21046;-79
2022/05/29 21:39:05;;;;;;;3.00;2.08;;;;;;;16.10;47.62;99726.56;1623319;88;21049;-86
2022/05/29 21:41:31;;;;;;;2.92;2.60;;;;;;;16.10;47.62;99723.84;1632650;86;21040;-75
2022/05/29 21:43:57;;;;;;;2.62;2.05;;;;;;;16.09;47.80;99733.08;1641630;86;22130;-77
2022/05/29 21:46:24;;;;;;;3.75;3.10;;;;;;;16.09;47.87;99732.27;1645045;86;21068;-86
2022/05/29 21:48:50;;;;;;;8.55;2.40;;;;;;;16.07;47.87;99733.89;1655222;86;21106;-85
2022/05/29 21:51:22;;;;;;;2.85;2.05;;;;;;;16.07;47.99;99731.18;1634486;86;20980;-88
2022/05/29 21:53:50;;;;;;;2.90;2.20;;;;;;;16.04;48.02;99729.05;1629078;85;21014;-84
2022/05/29 21:56:19;;;;;;;6.00;2.20;;;;;;;16.00;48.11;99725.28;1641073;86;21096;-86
2022/05/29 21:58:46;;;;;;;3.83;2.27;;;;;;;16.01;48.16;99722.84;1651921;86;21051;-85
2022/05/29 22:01:17;;;;;;;2.27;2.08;;;;;;;16.00;48.26;99738.05;1652999;83;21283;-83
2022/05/29 22:03:44;;;;;;;6.28;2.47;;;;;;;15.98;48.39;99744.28;1658247;82;20923;-74
2022/05/29 22:06:16;;;;;;;2.75;2.30;;;;;;;15.95;48.55;99744.31;1653646;84;21589;-77
2022/05/29 22:08:44;;;;;;;2.50;2.00;;;;;;;15.93;48.61;99747.03;1655535;85;20900;-78
2022/05/29 22:11:13;;;;;;;2.98;2.17;;;;;;;15.91;48.60;99744.63;1647825;86;21131;-76
2022/05/29 22:13:41;;;;;;;3.08;2.00;;;;;;;15.86;48.97;99749.28;1656741;84;21191;-84
2022/05/29 22:16:14;;;;;;;9.13;2.08;;;;;;;15.79;49.26;99750.13;1661181;86;20968;-77
2022/05/29 22:18:41;;;;;;;3.17;2.00;;;;;;;15.78;49.45;99752.03;1636248;87;21110;-80
2022/05/29 22:21:12;;;;;;;4.30;2.37;;;;;;;15.74;49.60;99764.53;1661268;86;21000;-82
2022/05/29 22:23:39;;;;;;;4.45;2.00;;;;;;;15.74;49.64;99761.01;1642715;86;21024;-84
2022/05/29 22:26:06;;;;;;;5.12;2.35;;;;;;;15.75;49.75;99771.59;1638934;86;20936;-84
2022/05/29 22:28:34;;;;;;;3.60;2.22;;;;;;;15.76;49.88;99778.63;1625713;86;21083;-85
2022/05/29 22:31:15;;;;;;;3.35;2.50;;;;;;;15.76;49.97;99774.56;1660014;86;21564;-85
2022/05/29 22:33:45;;;;;;;2.95;2.00;;;;;;;15.74;50.17;99770.50;1663264;85;21090;-87
2022/05/29 22:36:15;;;;;;;3.05;2.25;;;;;;;15.71;50.29;99769.17;1661132;86;20963;-84
2022/05/29 22:38:42;;;;;;;2.98;2.17;;;;;;;15.69;50.32;99766.73;1622412;87;21145;-88
2022/05/29 22:41:10;;;;;;;2.70;2.37;;;;;;;15.64;50.68;99764.60;1653427;86;21118;-87
2022/05/29 22:43:37;;;;;;;2.45;1.85;;;;;;;15.63;50.76;99757.58;1659474;86;21541;-86
2022/05/29 22:46:08;;;;;;;3.15;2.58;;;;;;;15.59;51.12;99752.43;1661035;86;21055;-83
2022/05/29 22:49:00;;;;;;;2.47;2.27;;;;;;;15.55;51.33;99748.13;1664314;85;21240;-84
2022/05/29 22:51:35;;;;;;;2.55;2.10;;;;;;;15.52;51.40;99752.77;1631868;88;21529;-84
2022/05/29 22:54:20;;;;;;;5.20;2.30;;;;;;;15.53;51.41;99753.58;1633629;86;21055;-82
2022/05/29 22:56:48;;;;;;;2.65;2.10;;;;;;;15.56;51.42;99774.69;1639757;86;21130;-81
2022/05/29 22:59:15;;;;;;;2.27;1.98;;;;;;;15.57;51.45;99773.06;1647411;86;21532;-84
2022/05/29 23:01:46;;;;;;;4.28;3.62;;;;;;;15.59;51.55;99772.77;1650140;86;21063;-73
2022/05/29 23:04:34;;;;;;;2.97;2.23;;;;;;;15.60;51.61;99773.84;1658375;86;21028;-76
2022/05/29 23:07:03;;;;;;;3.85;2.45;;;;;;;15.60;51.77;99771.68;1658811;86;20971;-76
2022/05/29 23:09:32;;;;;;;2.47;2.20;;;;;;;15.58;51.91;99773.34;1632290;87;21011;-76
2022/05/29 23:11:58;;;;;;;2.55;2.20;;;;;;;15.59;51.91;99775.47;1647629;86;21047;-74
2022/05/29 23:14:25;;;;;;;3.50;2.30;;;;;;;15.61;52.00;99774.66;1658644;85;21485;-75
2022/05/29 23:16:53;;;;;;;2.50;2.30;;;;;;;15.62;52.05;99770.33;1634960;86;20988;-73
2022/05/29 23:19:20;;;;;;;3.25;2.25;;;;;;;15.62;52.12;99770.33;1659049;86;21035;-74
2022/05/29 23:21:55;;;;;;;2.65;2.25;;;;;;;15.63;52.11;99765.14;1659003;86;21072;-81
2022/05/29 23:24:26;;;;;;;3.25;2.30;;;;;;;15.64;52.17;99755.92;1658125;86;21259;-75
2022/05/29 23:26:53;;;;;;;5.05;2.00;;;;;;;15.64;52.11;99749.14;1659327;86;20972;-74
2022/05/29 23:30:05;;;;;;;2.52;1.90;;;;;;;15.63;52.21;99748.87;1664372;86;21570;-72
2022/05/29 23:31:48;;;;;;;5.72;2.20;;;;;;;15.65;52.36;99752.67;1664641;84;20940;-76
2022/05/29 23:34:15;;;;;;;2.92;2.05;;;;;;;15.63;52.60;99762.43;1664188;86;21015;-76
2022/05/29 23:36:41;;;;;;;3.58;1.65;;;;;;;15.62;52.77;99754.59;1637189;86;21149;-77
2022/05/29 23:39:08;;;;;;;2.30;1.87;;;;;;;15.59;52.96;99749.72;1663835;86;20989;-78
2022/05/29 23:44:21;;;;;;;2.30;1.98;;;;;;;15.56;53.25;99740.27;1645204;87;21113;-80
2022/05/29 23:46:56;;;;;;;3.67;1.90;;;;;;;15.57;53.34;99736.47;1638880;86;21056;-82
2022/05/29 23:49:25;;;;;;;4.92;2.35;;;;;;;15.55;53.41;99735.11;1658899;86;21127;-75
2022/05/29 23:51:54;;;;;;;4.50;2.50;;;;;;;15.51;53.73;99736.77;1632440;86;21135;-74
2022/05/29 23:54:21;;;;;;;3.42;2.20;;;;;;;15.45;54.05;99737.85;1641327;86;21562;-76
2022/05/29 23:56:49;;;;;;;3.42;2.20;;;;;;;15.40;54.26;99735.98;1634823;86;20995;-74
2022/05/29 23:59:15;;;;;;;3.33;2.08;;;;;;;15.39;54.46;99732.22;1634454;87;21434;-76
